METAR Data
IDs: Format: Raw Decoded Include TAF

Data at: 2248 UTC 19 Jan 2019

METAR for:KHLX (Hillsville/Twin Cnty, VA, US)
Text:KHLX 192235Z AUTO 13007KT 4SM -DZ OVC004 04/04 A2968 RMK AO2 T00400035
Temperature: 4.0°C ( 39°F)
Dewpoint: 3.5°C ( 38°F) [RH = 97%]
Pressure (altimeter):29.68 inches Hg (1005.2 mb)
Winds:from the SE (130 degrees) at 8 MPH (7 knots; 3.6 m/s)
Visibility: 4 sm ( 6 km)
Ceiling:400 feet AGL
Clouds: overcast cloud deck at 400 feet AGL
Weather:-DZ (light drizzle)
QC Flag:automated observation with no human augmentation